Time;durP1;ratioP1;P1;durP2;ratioP2;P2;SDS_P1;SDS_P2;PMS_P1;PMS_P2;Temp;Humidity;BMP_temperature;BMP_pressure;BME280_temperature;BME280_humidity;BME280_pressure;Samples;Min_cycle;Max_cycle;Signal;HPM_P1;HPM_P2
2023/10/26 00:02:22;;;;;;;10.02;7.60;;;12.00;99.90;;;;;;5050780;28;20457;-70
2023/10/26 00:05:08;;;;;;;10.32;7.93;;;12.00;99.90;;;;;;5057037;28;20040;-70
2023/10/26 00:07:54;;;;;;;13.55;8.35;;;12.00;99.90;;;;;;5064009;28;20090;-71
2023/10/26 00:10:40;;;;;;;11.05;7.75;;;12.00;99.90;;;;;;5049687;28;20045;-70
2023/10/26 00:13:26;;;;;;;9.38;7.88;;;12.00;99.90;;;;;;5070561;28;20361;-68
2023/10/26 00:16:12;;;;;;;8.25;6.97;;;12.00;99.90;;;;;;5062603;28;20040;-69
2023/10/26 00:18:58;;;;;;;9.93;7.03;;;12.00;99.90;;;;;;5051249;28;20041;-68
2023/10/26 00:21:44;;;;;;;9.40;7.63;;;12.00;99.90;;;;;;5050895;28;20545;-69
2023/10/26 00:24:30;;;;;;;10.00;7.93;;;12.00;99.90;;;;;;5050164;28;20491;-69
2023/10/26 00:27:17;;;;;;;11.13;7.88;;;12.00;99.90;;;;;;5062150;28;20587;-68
2023/10/26 00:30:03;;;;;;;8.95;7.15;;;12.00;99.90;;;;;;5065204;28;20045;-69
2023/10/26 00:32:49;;;;;;;9.25;7.13;;;12.00;99.90;;;;;;5065221;28;20526;-69
2023/10/26 00:35:36;;;;;;;9.70;7.75;;;12.00;99.90;;;;;;5064376;28;20083;-69
2023/10/26 00:38:22;;;;;;;12.55;8.85;;;12.00;99.90;;;;;;5050914;28;20052;-68
2023/10/26 00:41:08;;;;;;;11.10;8.40;;;12.00;99.90;;;;;;5061630;28;20058;-69
2023/10/26 00:43:54;;;;;;;11.00;8.60;;;11.90;99.90;;;;;;5069913;28;20540;-68
2023/10/26 00:46:39;;;;;;;10.15;8.07;;;11.90;99.90;;;;;;5052414;28;20067;-71
2023/10/26 00:49:26;;;;;;;11.30;8.38;;;11.90;99.90;;;;;;5060296;28;20044;-70
2023/10/26 00:52:12;;;;;;;9.93;8.25;;;11.90;99.90;;;;;;5065087;28;20057;-71
2023/10/26 00:54:58;;;;;;;11.20;8.75;;;11.90;99.90;;;;;;5049236;28;20048;-71
2023/10/26 00:57:45;;;;;;;11.80;8.75;;;11.90;99.90;;;;;;5049226;28;20615;-71
2023/10/26 01:00:31;;;;;;;10.27;8.77;;;11.90;99.90;;;;;;5049678;28;20107;-71
2023/10/26 01:03:18;;;;;;;13.35;8.32;;;11.80;99.90;;;;;;5048357;28;20099;-72
2023/10/26 01:06:04;;;;;;;10.40;7.78;;;11.80;99.90;;;;;;5052853;28;20040;-72
2023/10/26 01:08:50;;;;;;;10.45;8.55;;;11.80;99.90;;;;;;5068472;28;20036;-72
2023/10/26 01:11:37;;;;;;;11.20;8.65;;;11.80;99.90;;;;;;5055678;28;20033;-72
2023/10/26 01:14:24;;;;;;;12.68;9.05;;;11.80;99.90;;;;;;5062910;28;20049;-73
2023/10/26 01:17:10;;;;;;;10.68;9.02;;;11.80;99.90;;;;;;5052639;28;20068;-73
2023/10/26 01:19:56;;;;;;;11.35;8.73;;;11.80;99.90;;;;;;5062235;28;20312;-73
2023/10/26 01:22:42;;;;;;;12.98;9.27;;;11.70;99.90;;;;;;5067853;28;20513;-75
2023/10/26 01:25:28;;;;;;;12.43;9.38;;;11.70;99.90;;;;;;5057917;28;20048;-72
2023/10/26 01:28:14;;;;;;;10.93;9.45;;;11.70;99.90;;;;;;5068985;28;20464;-73
2023/10/26 01:31:00;;;;;;;12.65;9.52;;;11.70;99.90;;;;;;5060217;28;20045;-72
2023/10/26 01:33:45;;;;;;;12.35;10.00;;;11.70;99.90;;;;;;5050158;28;20056;-72
2023/10/26 01:36:32;;;;;;;14.40;9.57;;;11.70;99.90;;;;;;5049426;28;20048;-72
2023/10/26 01:39:18;;;;;;;12.43;9.48;;;11.70;99.90;;;;;;5049322;28;20466;-73
2023/10/26 01:42:09;;;;;;;13.88;9.85;;;11.70;99.90;;;;;;5043036;28;20083;-73
2023/10/26 01:44:55;;;;;;;12.77;9.05;;;11.80;99.90;;;;;;5049610;28;20059;-72
2023/10/26 01:47:41;;;;;;;11.25;9.02;;;11.80;99.90;;;;;;5049045;28;20056;-72
2023/10/26 01:50:29;;;;;;;11.82;9.93;;;11.80;99.90;;;;;;5050800;28;20051;-71
2023/10/26 01:53:15;;;;;;;17.33;9.73;;;11.80;99.90;;;;;;5050688;28;20107;-71
2023/10/26 01:56:01;;;;;;;11.45;9.15;;;11.80;99.90;;;;;;5049417;28;20116;-72
2023/10/26 01:58:47;;;;;;;12.63;10.20;;;11.80;99.90;;;;;;5062856;28;20123;-72
2023/10/26 02:01:33;;;;;;;13.02;9.60;;;11.80;99.90;;;;;;5067659;28;20036;-71
2023/10/26 02:04:19;;;;;;;13.82;10.68;;;11.80;99.90;;;;;;5058200;28;20044;-71
2023/10/26 02:07:05;;;;;;;13.65;10.43;;;11.90;99.90;;;;;;5058702;28;20049;-71
2023/10/26 02:09:51;;;;;;;12.73;9.93;;;11.80;99.90;;;;;;5059774;28;20461;-70
2023/10/26 02:12:37;;;;;;;16.20;10.45;;;11.80;99.90;;;;;;5063128;28;20056;-70
2023/10/26 02:15:23;;;;;;;12.35;9.07;;;11.90;99.90;;;;;;5055560;28;20432;-70
2023/10/26 02:18:09;;;;;;;12.10;9.90;;;11.90;99.90;;;;;;5049061;28;20552;-71
2023/10/26 02:20:55;;;;;;;13.55;9.75;;;11.90;99.90;;;;;;5065420;28;20562;-71
2023/10/26 02:23:41;;;;;;;13.77;10.70;;;11.80;99.90;;;;;;5048070;28;20093;-71
2023/10/26 02:26:27;;;;;;;15.70;11.00;;;11.90;99.90;;;;;;5056572;28;20052;-70
2023/10/26 02:29:13;;;;;;;13.98;10.77;;;11.90;99.90;;;;;;5067601;28;20111;-72
2023/10/26 02:31:59;;;;;;;13.23;10.13;;;11.90;99.90;;;;;;5060839;28;20048;-71
2023/10/26 02:34:45;;;;;;;16.08;11.10;;;11.90;99.90;;;;;;5057786;28;20102;-71
2023/10/26 02:37:33;;;;;;;16.70;11.65;;;11.80;99.90;;;;;;5049340;28;20112;-71
2023/10/26 02:40:19;;;;;;;18.85;12.48;;;11.80;99.90;;;;;;5067107;28;20501;-71
2023/10/26 02:43:05;;;;;;;15.30;10.98;;;11.80;99.90;;;;;;5050358;28;20414;-71
2023/10/26 02:46:00;;;;;;;13.43;10.88;;;11.80;99.90;;;;;;5048106;28;20056;-72
2023/10/26 02:48:46;;;;;;;16.48;11.32;;;11.80;99.90;;;;;;5052943;28;20048;-71
2023/10/26 02:51:32;;;;;;;15.38;11.27;;;11.80;99.90;;;;;;5043095;28;20052;-72
2023/10/26 02:54:17;;;;;;;15.82;10.98;;;11.80;99.90;;;;;;5050410;28;20091;-71
2023/10/26 02:57:04;;;;;;;16.20;11.73;;;11.80;99.90;;;;;;5052788;28;20102;-72
2023/10/26 02:59:50;;;;;;;14.05;11.68;;;11.70;99.90;;;;;;5048103;28;20051;-70
2023/10/26 03:02:35;;;;;;;15.95;11.73;;;11.80;99.90;;;;;;5047774;28;20045;-72
2023/10/26 03:05:21;;;;;;;13.98;10.88;;;11.70;99.90;;;;;;5052503;28;20393;-72
2023/10/26 03:08:08;;;;;;;16.70;12.00;;;11.70;99.90;;;;;;5065890;28;20040;-72
2023/10/26 03:10:54;;;;;;;15.05;11.70;;;11.70;99.90;;;;;;5055845;28;20099;-72
2023/10/26 03:13:40;;;;;;;16.50;11.23;;;11.80;99.90;;;;;;5048421;28;20057;-71
2023/10/26 03:16:26;;;;;;;14.23;11.02;;;11.80;99.90;;;;;;5047808;28;20049;-72
2023/10/26 03:19:12;;;;;;;14.52;11.32;;;11.70;99.90;;;;;;5050463;28;20090;-72
2023/10/26 03:21:59;;;;;;;15.00;10.82;;;11.70;99.90;;;;;;5066158;28;20612;-71
2023/10/26 03:24:44;;;;;;;15.63;11.73;;;11.70;99.90;;;;;;5059614;28;20439;-72
2023/10/26 03:27:31;;;;;;;13.65;10.82;;;11.70;99.90;;;;;;5071466;28;20070;-72
2023/10/26 03:30:17;;;;;;;13.38;10.60;;;11.80;99.90;;;;;;5070036;28;20056;-71
2023/10/26 03:33:03;;;;;;;15.43;11.43;;;11.70;99.90;;;;;;5066143;28;20136;-70
2023/10/26 03:35:49;;;;;;;14.02;11.45;;;11.70;99.90;;;;;;5070484;28;20051;-71
2023/10/26 03:38:35;;;;;;;16.08;11.68;;;11.60;99.90;;;;;;5070896;28;20041;-70
2023/10/26 03:41:20;;;;;;;15.48;11.65;;;11.70;99.90;;;;;;5069429;28;20542;-71
2023/10/26 03:44:08;;;;;;;14.93;10.65;;;11.70;99.90;;;;;;5051062;28;20694;-71
2023/10/26 03:46:54;;;;;;;15.02;11.07;;;11.70;99.90;;;;;;5050791;28;20133;-72
2023/10/26 03:49:40;;;;;;;15.68;11.80;;;11.60;99.90;;;;;;5060621;28;20041;-72
2023/10/26 03:52:26;;;;;;;17.52;11.07;;;11.60;99.90;;;;;;5068863;28;20047;-72
2023/10/26 03:55:12;;;;;;;13.45;10.55;;;11.70;99.90;;;;;;5050485;28;20045;-74
2023/10/26 03:57:57;;;;;;;13.10;10.23;;;11.60;99.90;;;;;;5058806;28;20406;-72
2023/10/26 04:00:44;;;;;;;13.40;10.43;;;11.60;99.90;;;;;;5054757;28;20046;-72
2023/10/26 04:03:30;;;;;;;14.35;11.20;;;11.60;99.90;;;;;;5051365;28;20053;-74
2023/10/26 04:06:16;;;;;;;13.85;10.45;;;11.60;99.90;;;;;;5051744;28;20040;-73
2023/10/26 04:09:02;;;;;;;14.70;10.50;;;11.60;99.90;;;;;;5066695;28;20040;-72
2023/10/26 04:11:47;;;;;;;19.83;10.10;;;11.60;99.90;;;;;;5064299;28;20037;-72
2023/10/26 04:14:34;;;;;;;13.13;9.85;;;11.60;99.90;;;;;;5056167;28;20103;-73
2023/10/26 04:17:19;;;;;;;11.95;9.43;;;11.60;99.90;;;;;;5056591;28;20041;-72
2023/10/26 04:20:10;;;;;;;11.63;9.05;;;11.60;99.90;;;;;;5051401;28;20053;-72
2023/10/26 04:22:56;;;;;;;12.40;9.05;;;11.50;99.90;;;;;;5050833;28;20047;-72
2023/10/26 04:25:42;;;;;;;12.50;9.07;;;11.60;99.90;;;;;;5051007;28;20456;-72
2023/10/26 04:28:28;;;;;;;11.98;9.52;;;11.60;99.90;;;;;;5052052;28;20029;-72
2023/10/26 04:31:14;;;;;;;10.88;8.68;;;11.60;99.90;;;;;;5054823;28;20040;-70
2023/10/26 04:34:00;;;;;;;11.82;8.80;;;11.60;99.90;;;;;;5070240;28;20051;-71
2023/10/26 04:36:46;;;;;;;12.45;8.95;;;11.60;99.90;;;;;;5058709;28;20075;-72
2023/10/26 04:39:32;;;;;;;11.80;9.27;;;11.60;99.90;;;;;;5050630;28;20040;-72
2023/10/26 04:42:18;;;;;;;12.48;9.50;;;11.70;99.90;;;;;;5063366;28;20410;-72
2023/10/26 04:45:05;;;;;;;12.20;9.85;;;11.70;99.90;;;;;;5050951;28;20042;-72
2023/10/26 04:47:51;;;;;;;11.32;9.13;;;11.70;99.90;;;;;;5050887;28;20445;-72
2023/10/26 04:50:36;;;;;;;12.63;9.90;;;11.70;99.90;;;;;;5062706;28;20053;-73
2023/10/26 04:53:22;;;;;;;10.82;9.15;;;11.70;99.90;;;;;;5070141;28;20084;-72
2023/10/26 04:56:11;;;;;;;11.25;9.07;;;11.70;99.90;;;;;;5054843;28;20101;-72
2023/10/26 04:58:57;;;;;;;11.80;8.57;;;11.70;99.90;;;;;;5051226;28;20036;-73
2023/10/26 05:01:43;;;;;;;10.90;8.30;;;11.70;99.90;;;;;;5060365;28;20085;-72
2023/10/26 05:04:28;;;;;;;11.43;8.18;;;11.70;99.90;;;;;;5066699;28;20056;-71
2023/10/26 05:07:14;;;;;;;10.25;7.65;;;11.70;99.90;;;;;;5061997;28;20075;-72
2023/10/26 05:10:00;;;;;;;9.60;7.55;;;11.70;99.90;;;;;;5050688;28;20055;-73
2023/10/26 05:12:46;;;;;;;11.15;8.40;;;11.70;99.90;;;;;;5049690;28;20438;-73
2023/10/26 05:15:32;;;;;;;10.60;8.48;;;11.70;99.90;;;;;;5050899;28;20049;-73
2023/10/26 05:18:18;;;;;;;10.00;7.72;;;11.60;99.90;;;;;;5050024;28;20052;-73
2023/10/26 05:21:04;;;;;;;11.23;8.68;;;11.60;99.90;;;;;;5055560;28;20045;-72
2023/10/26 05:23:50;;;;;;;11.27;8.65;;;11.60;99.90;;;;;;5059219;28;20065;-72
2023/10/26 05:26:36;;;;;;;11.02;8.40;;;11.60;99.90;;;;;;5056346;28;20230;-72
2023/10/26 05:29:22;;;;;;;10.40;9.00;;;11.70;99.90;;;;;;5055041;28;20048;-72
2023/10/26 05:32:08;;;;;;;11.40;8.77;;;11.70;99.90;;;;;;5055469;28;20041;-72
2023/10/26 05:34:54;;;;;;;10.85;7.97;;;11.70;99.90;;;;;;5068789;28;20041;-72
2023/10/26 05:37:40;;;;;;;11.55;8.85;;;11.70;99.90;;;;;;5068502;28;20501;-73
2023/10/26 05:40:26;;;;;;;11.85;8.77;;;11.70;99.90;;;;;;5066841;28;20041;-72
2023/10/26 05:43:12;;;;;;;12.70;9.50;;;11.70;99.90;;;;;;5050674;28;20128;-72
2023/10/26 05:46:05;;;;;;;10.57;8.15;;;11.70;99.90;;;;;;5060888;28;20481;-72
2023/10/26 05:48:51;;;;;;;12.18;7.78;;;11.70;99.90;;;;;;5068675;28;20493;-71
2023/10/26 05:51:37;;;;;;;12.40;8.63;;;11.70;99.90;;;;;;5067356;28;20033;-72
2023/10/26 05:54:23;;;;;;;12.05;8.65;;;11.70;99.90;;;;;;5068551;28;20080;-70
2023/10/26 05:57:08;;;;;;;10.63;8.50;;;11.70;99.90;;;;;;5067878;28;20029;-70
2023/10/26 05:59:54;;;;;;;12.50;9.02;;;11.70;99.90;;;;;;5065264;28;20044;-70
2023/10/26 06:02:40;;;;;;;9.93;7.80;;;11.70;99.90;;;;;;5055108;28;20036;-71
2023/10/26 06:05:27;;;;;;;10.35;8.18;;;11.70;99.90;;;;;;5058053;28;20083;-71
2023/10/26 06:08:13;;;;;;;9.90;7.30;;;11.80;99.90;;;;;;5067454;28;20036;-69
2023/10/26 06:10:59;;;;;;;11.05;7.65;;;11.70;99.90;;;;;;5053921;28;20508;-70
2023/10/26 06:13:45;;;;;;;10.45;7.82;;;11.70;99.90;;;;;;5050393;28;20056;-69
2023/10/26 06:16:31;;;;;;;11.15;7.38;;;11.70;99.90;;;;;;5060019;28;20098;-66
2023/10/26 06:19:17;;;;;;;9.82;7.30;;;11.80;99.90;;;;;;5056240;28;20049;-69
2023/10/26 06:22:04;;;;;;;11.73;8.25;;;11.70;99.90;;;;;;5052440;28;20120;-69
2023/10/26 06:24:49;;;;;;;9.80;7.60;;;11.80;99.90;;;;;;5049840;28;20506;-68
2023/10/26 06:27:35;;;;;;;9.68;7.70;;;11.80;99.90;;;;;;5073408;28;20048;-69
2023/10/26 06:30:24;;;;;;;10.60;7.93;;;11.70;99.90;;;;;;5065110;28;20055;-68
2023/10/26 06:33:12;;;;;;;9.13;7.22;;;11.80;99.90;;;;;;5048850;28;20131;-69
2023/10/26 06:35:59;;;;;;;9.38;8.00;;;11.80;99.90;;;;;;5052898;28;20045;-69
2023/10/26 06:38:45;;;;;;;10.60;8.02;;;11.80;99.90;;;;;;5061216;28;20398;-69
2023/10/26 06:41:31;;;;;;;10.02;7.75;;;11.80;99.90;;;;;;5068297;28;20045;-68
2023/10/26 06:44:17;;;;;;;11.35;8.20;;;11.80;99.90;;;;;;5052452;28;20044;-69
2023/10/26 06:47:03;;;;;;;10.15;7.40;;;11.80;99.90;;;;;;5056081;28;20044;-69
2023/10/26 06:49:49;;;;;;;8.77;7.20;;;11.80;99.90;;;;;;5066733;28;20498;-71
2023/10/26 06:52:35;;;;;;;10.23;7.88;;;11.80;99.90;;;;;;5047919;28;20087;-70
2023/10/26 06:55:21;;;;;;;10.63;7.90;;;11.80;99.90;;;;;;5042033;28;20148;-65
2023/10/26 06:58:07;;;;;;;10.07;7.85;;;11.70;99.90;;;;;;5055839;28;20055;-66
2023/10/26 07:00:53;;;;;;;11.85;8.27;;;11.70;99.90;;;;;;5058816;28;20045;-65
2023/10/26 07:03:39;;;;;;;8.88;7.40;;;11.80;99.90;;;;;;5051732;28;20468;-66
2023/10/26 07:06:25;;;;;;;9.65;7.97;;;11.80;99.90;;;;;;5065343;28;20620;-66
2023/10/26 07:09:11;;;;;;;10.88;8.63;;;11.80;99.90;;;;;;5048144;28;20052;-65
2023/10/26 07:11:57;;;;;;;11.55;8.88;;;11.80;99.90;;;;;;5064012;28;20102;-66
2023/10/26 07:14:43;;;;;;;11.55;9.07;;;11.80;99.90;;;;;;5066544;28;20469;-65
2023/10/26 07:17:29;;;;;;;11.00;8.30;;;11.70;99.90;;;;;;5062221;28;20095;-64
2023/10/26 07:20:15;;;;;;;11.32;8.68;;;11.80;99.90;;;;;;5069262;28;20064;-64
2023/10/26 07:23:01;;;;;;;8.65;7.38;;;11.80;99.90;;;;;;5058965;28;20051;-69
2023/10/26 07:25:47;;;;;;;13.52;8.10;;;11.80;99.90;;;;;;5057155;28;20144;-68
2023/10/26 07:28:33;;;;;;;10.77;7.85;;;11.90;99.90;;;;;;5058795;28;20406;-69
2023/10/26 07:31:20;;;;;;;10.63;8.75;;;11.90;99.90;;;;;;5065942;28;20053;-69
2023/10/26 07:34:06;;;;;;;12.25;8.23;;;12.00;99.90;;;;;;5050100;28;20059;-68
2023/10/26 07:36:52;;;;;;;9.32;7.47;;;12.00;99.90;;;;;;5064702;28;20052;-69
2023/10/26 07:39:38;;;;;;;8.48;7.20;;;12.00;99.90;;;;;;5064913;28;20046;-69
2023/10/26 07:42:23;;;;;;;9.50;7.45;;;12.00;99.90;;;;;;5070585;28;20105;-69
2023/10/26 07:45:09;;;;;;;9.15;7.55;;;12.00;99.90;;;;;;5050457;28;20063;-69
2023/10/26 07:47:56;;;;;;;9.77;7.80;;;12.10;99.90;;;;;;5050055;28;20041;-69
2023/10/26 07:50:42;;;;;;;12.88;7.85;;;12.00;99.90;;;;;;5056423;28;20147;-69
2023/10/26 07:53:30;;;;;;;10.18;7.85;;;12.00;99.90;;;;;;5050175;28;20527;-69
2023/10/26 07:56:16;;;;;;;12.68;8.65;;;11.90;99.90;;;;;;5062053;28;20263;-69
2023/10/26 07:59:03;;;;;;;12.18;9.07;;;12.00;99.90;;;;;;5052451;28;20496;-68
2023/10/26 08:01:49;;;;;;;10.65;8.13;;;12.00;99.90;;;;;;5061084;28;20053;-69
2023/10/26 08:04:35;;;;;;;10.43;8.00;;;12.00;99.90;;;;;;5050375;28;20160;-70
2023/10/26 08:07:21;;;;;;;10.45;8.13;;;12.00;99.90;;;;;;5069429;28;20040;-69
2023/10/26 08:10:09;;;;;;;12.63;9.50;;;12.00;99.90;;;;;;5069242;28;20047;-69
2023/10/26 08:12:55;;;;;;;10.38;8.95;;;12.00;99.90;;;;;;5056950;28;20041;-70
2023/10/26 08:15:42;;;;;;;13.30;9.80;;;12.00;99.90;;;;;;5050505;28;20048;-69
2023/10/26 08:18:29;;;;;;;11.93;9.25;;;12.00;99.90;;;;;;5052339;28;20135;-69
2023/10/26 08:21:15;;;;;;;13.02;9.85;;;12.00;99.90;;;;;;5050382;28;20453;-70
2023/10/26 08:24:01;;;;;;;10.98;8.90;;;11.90;99.90;;;;;;5051003;28;20033;-68
2023/10/26 08:26:47;;;;;;;12.05;9.65;;;11.90;99.90;;;;;;5050798;28;20045;-69
2023/10/26 08:29:33;;;;;;;11.57;9.05;;;11.90;99.90;;;;;;5052088;28;20043;-70
2023/10/26 08:32:19;;;;;;;15.02;10.88;;;11.90;99.90;;;;;;5054903;28;20045;-70
2023/10/26 08:35:07;;;;;;;12.05;8.98;;;12.00;99.90;;;;;;5068302;28;20099;-70
2023/10/26 08:37:53;;;;;;;11.45;9.02;;;12.10;99.90;;;;;;5056962;28;20056;-70
2023/10/26 08:40:48;;;;;;;10.65;8.18;;;12.10;99.90;;;;;;5050814;28;20077;-70
2023/10/26 08:43:34;;;;;;;9.63;7.57;;;12.10;99.90;;;;;;5051326;28;20037;-69
2023/10/26 08:46:20;;;;;;;10.02;8.15;;;12.10;99.90;;;;;;5054948;28;20040;-70
2023/10/26 08:49:08;;;;;;;10.48;8.15;;;12.20;99.90;;;;;;5047445;28;20106;-69
2023/10/26 08:51:54;;;;;;;11.18;8.52;;;12.20;99.90;;;;;;5050307;28;20056;-70
2023/10/26 08:54:40;;;;;;;12.75;8.85;;;12.20;99.90;;;;;;5051110;28;20064;-70
2023/10/26 08:57:26;;;;;;;10.23;7.70;;;12.20;99.90;;;;;;5050426;28;20045;-70
2023/10/26 09:00:13;;;;;;;11.98;9.05;;;12.20;99.90;;;;;;5054608;28;20082;-70
2023/10/26 09:02:59;;;;;;;10.73;8.15;;;12.30;99.90;;;;;;5069963;28;20029;-71
2023/10/26 09:05:55;;;;;;;11.93;9.27;;;12.30;99.90;;;;;;5071057;28;20433;-70
2023/10/26 09:08:41;;;;;;;12.02;9.93;;;12.40;99.90;;;;;;5067806;28;20040;-70
2023/10/26 09:11:27;;;;;;;11.98;9.27;;;12.40;99.90;;;;;;5069090;28;20036;-70
2023/10/26 09:14:16;;;;;;;14.63;10.57;;;12.40;99.90;;;;;;5067053;28;20048;-69
2023/10/26 09:17:03;;;;;;;12.15;9.68;;;12.50;99.90;;;;;;5068506;28;20028;-70
2023/10/26 09:19:49;;;;;;;15.73;11.38;;;12.50;99.90;;;;;;5068757;28;20040;-70
2023/10/26 09:22:39;;;;;;;13.23;8.93;;;12.50;99.90;;;;;;5067014;28;20105;-70
2023/10/26 09:25:25;;;;;;;15.40;9.35;;;12.50;99.90;;;;;;5057265;28;20063;-71
2023/10/26 09:28:11;;;;;;;12.23;9.40;;;12.50;99.90;;;;;;5057990;28;20631;-70
2023/10/26 09:31:02;;;;;;;10.02;8.02;;;12.50;99.90;;;;;;5050068;28;20059;-70
2023/10/26 09:33:49;;;;;;;11.27;7.70;;;12.60;99.90;;;;;;5049547;28;20075;-66
2023/10/26 09:36:35;;;;;;;13.40;9.50;;;12.60;99.90;;;;;;5050529;28;20060;-66
2023/10/26 09:39:22;;;;;;;12.23;9.43;;;12.60;99.90;;;;;;5048599;28;20087;-67
2023/10/26 09:42:11;;;;;;;12.52;9.18;;;12.60;99.90;;;;;;5050511;28;20040;-67
2023/10/26 09:44:57;;;;;;;14.05;9.65;;;12.60;99.90;;;;;;5048758;28;20068;-68
2023/10/26 09:47:44;;;;;;;12.68;9.73;;;12.60;99.90;;;;;;5061953;28;20033;-67
2023/10/26 09:50:38;;;;;;;13.55;10.90;;;12.60;99.90;;;;;;5059694;28;20052;-67
2023/10/26 09:53:24;;;;;;;12.25;9.80;;;12.70;99.90;;;;;;5066639;28;20136;-69
2023/10/26 09:56:17;;;;;;;11.00;8.38;;;12.70;99.90;;;;;;5049211;28;20128;-67
2023/10/26 09:59:03;;;;;;;9.68;7.22;;;12.60;99.90;;;;;;5048569;28;20068;-68
2023/10/26 10:01:49;;;;;;;9.70;7.22;;;12.60;99.90;;;;;;5048347;28;20048;-68
2023/10/26 10:04:37;;;;;;;9.85;7.15;;;12.60;99.90;;;;;;5057693;28;20106;-68
2023/10/26 10:07:45;;;;;;;9.63;8.25;;;12.60;99.90;;;;;;5048808;28;20043;-67
2023/10/26 10:10:32;;;;;;;7.78;6.13;;;12.70;99.90;;;;;;5047179;28;20143;-67
2023/10/26 10:13:37;;;;;;;9.02;6.82;;;12.70;99.90;;;;;;5048575;28;20048;-70
2023/10/26 10:16:35;;;;;;;9.18;6.95;;;12.70;99.90;;;;;;5048278;28;20041;-71
2023/10/26 10:19:26;;;;;;;10.88;6.88;;;12.70;99.90;;;;;;5050560;28;20086;-69
2023/10/26 10:22:33;;;;;;;9.18;6.75;;;12.70;99.90;;;;;;5048746;28;20048;-69
2023/10/26 10:25:23;;;;;;;9.07;6.85;;;12.80;99.90;;;;;;5047365;28;20045;-70
2023/10/26 10:28:09;;;;;;;9.23;6.45;;;12.80;99.90;;;;;;5048659;28;20184;-69
2023/10/26 10:30:56;;;;;;;7.50;6.03;;;12.90;99.90;;;;;;5051428;28;20033;-69
2023/10/26 10:33:44;;;;;;;12.15;7.07;;;12.90;99.90;;;;;;5059774;28;20496;-69
2023/10/26 10:37:10;;;;;;;9.35;6.20;;;12.90;99.90;;;;;;5055223;28;20490;-69
2023/10/26 10:40:12;;;;;;;7.00;4.72;;;12.90;99.90;;;;;;5063269;28;20033;-68
2023/10/26 10:42:58;;;;;;;7.47;5.57;;;12.90;99.90;;;;;;5052500;28;20489;-69
2023/10/26 10:45:44;;;;;;;12.32;6.22;;;12.90;99.90;;;;;;5066016;28;20123;-68
2023/10/26 10:48:30;;;;;;;7.15;5.47;;;12.90;99.90;;;;;;5054441;28;20048;-69
2023/10/26 10:51:16;;;;;;;9.00;5.72;;;12.90;99.90;;;;;;5049086;28;20045;-66
2023/10/26 10:54:22;;;;;;;9.00;6.47;;;12.90;99.90;;;;;;5067598;28;20387;-67
2023/10/26 10:57:08;;;;;;;10.65;6.97;;;12.90;99.90;;;;;;5055398;28;20055;-66
2023/10/26 10:59:54;;;;;;;8.32;6.28;;;13.00;99.90;;;;;;5051176;28;20083;-70
2023/10/26 11:02:46;;;;;;;8.85;7.28;;;13.00;99.90;;;;;;5062876;28;20047;-69
2023/10/26 11:05:37;;;;;;;9.60;7.65;;;12.90;99.90;;;;;;5066313;28;20090;-72
2023/10/26 11:08:23;;;;;;;9.23;7.53;;;12.90;99.90;;;;;;5067572;28;20040;-67
2023/10/26 11:11:26;;;;;;;10.52;7.97;;;12.90;99.90;;;;;;5067615;28;20440;-69
2023/10/26 11:14:12;;;;;;;10.15;7.38;;;12.90;99.90;;;;;;5058456;28;20053;-68
2023/10/26 11:16:58;;;;;;;11.23;8.60;;;13.00;99.90;;;;;;5047957;28;20037;-69
2023/10/26 11:19:44;;;;;;;12.00;8.85;;;13.00;99.90;;;;;;5048396;28;20040;-70
2023/10/26 11:22:30;;;;;;;9.80;7.55;;;13.10;99.90;;;;;;5054248;28;20119;-71
2023/10/26 11:25:25;;;;;;;11.75;8.45;;;13.10;99.90;;;;;;5046859;28;20566;-72
2023/10/26 11:28:11;;;;;;;11.80;7.97;;;13.10;99.90;;;;;;5048563;28;20128;-70
2023/10/26 11:30:59;;;;;;;10.70;8.32;;;13.00;99.90;;;;;;5055049;28;20179;-68
2023/10/26 11:33:45;;;;;;;12.52;8.88;;;13.00;99.90;;;;;;5053548;28;20070;-71
2023/10/26 11:36:31;;;;;;;13.63;9.48;;;13.10;99.90;;;;;;5043931;28;20139;-68
2023/10/26 11:39:17;;;;;;;11.63;8.95;;;13.10;99.90;;;;;;5049263;28;20096;-69
2023/10/26 11:42:03;;;;;;;12.32;9.68;;;13.10;99.90;;;;;;5053649;28;20071;-69
2023/10/26 11:44:57;;;;;;;11.55;9.23;;;13.20;99.90;;;;;;5057914;28;20053;-71
2023/10/26 11:47:57;;;;;;;11.70;9.48;;;13.10;99.90;;;;;;5057268;28;20033;-71
2023/10/26 11:50:42;;;;;;;12.50;9.20;;;13.10;99.90;;;;;;5051508;28;20062;-70
2023/10/26 11:53:29;;;;;;;12.18;9.60;;;13.20;99.90;;;;;;5070999;28;20127;-69
2023/10/26 11:56:15;;;;;;;13.48;9.43;;;13.20;99.90;;;;;;5057250;28;20044;-70
2023/10/26 11:59:01;;;;;;;10.68;8.60;;;13.20;99.90;;;;;;5069654;28;20044;-70
2023/10/26 12:01:47;;;;;;;10.68;9.10;;;13.10;99.90;;;;;;5043658;28;20545;-69
2023/10/26 12:04:33;;;;;;;12.48;9.50;;;13.10;99.90;;;;;;5062561;28;20087;-70
2023/10/26 12:07:19;;;;;;;12.05;8.32;;;13.10;99.90;;;;;;5070664;28;20102;-69
2023/10/26 12:10:05;;;;;;;15.35;9.55;;;13.10;99.90;;;;;;5069686;28;20041;-69
2023/10/26 12:12:51;;;;;;;9.98;8.13;;;13.00;99.90;;;;;;5068417;28;20088;-69
2023/10/26 12:15:37;;;;;;;11.45;8.25;;;13.00;99.90;;;;;;5070352;28;20045;-70
2023/10/26 12:18:23;;;;;;;12.25;9.15;;;13.00;99.90;;;;;;5070001;28;20067;-69
2023/10/26 12:21:09;;;;;;;11.45;7.85;;;13.00;99.90;;;;;;5061282;28;20041;-69
2023/10/26 12:23:56;;;;;;;11.13;8.35;;;13.10;99.90;;;;;;5062075;28;20080;-69
2023/10/26 12:26:42;;;;;;;12.52;8.98;;;13.10;99.90;;;;;;5050055;28;20092;-70
2023/10/26 12:29:29;;;;;;;12.10;9.07;;;13.00;99.90;;;;;;5054674;28;20067;-69
2023/10/26 12:32:15;;;;;;;11.93;9.00;;;13.10;99.90;;;;;;5065347;28;20047;-69
2023/10/26 12:35:02;;;;;;;14.32;9.50;;;13.10;99.90;;;;;;5077419;28;20052;-70
2023/10/26 12:37:48;;;;;;;11.23;8.68;;;13.00;99.90;;;;;;5059610;28;20032;-69
2023/10/26 12:40:34;;;;;;;13.15;9.35;;;13.10;99.90;;;;;;5066162;28;20044;-69
2023/10/26 12:43:20;;;;;;;12.98;9.50;;;13.10;99.90;;;;;;5052538;28;20131;-69
2023/10/26 12:46:06;;;;;;;11.18;8.73;;;13.10;99.90;;;;;;5064923;28;20041;-70
2023/10/26 12:48:52;;;;;;;12.00;8.63;;;13.10;99.90;;;;;;5060440;28;20072;-70
2023/10/26 12:51:38;;;;;;;13.05;9.95;;;13.10;99.90;;;;;;5084424;28;20041;-70
2023/10/26 12:54:24;;;;;;;12.07;8.40;;;13.10;99.90;;;;;;5053900;28;20060;-69
2023/10/26 12:57:10;;;;;;;11.95;7.47;;;13.20;99.90;;;;;;5038339;28;20116;-69
2023/10/26 12:59:56;;;;;;;9.48;7.28;;;13.10;99.90;;;;;;5068265;28;20045;-69
2023/10/26 13:02:42;;;;;;;9.95;7.20;;;13.10;99.90;;;;;;5075710;28;20029;-69
2023/10/26 13:05:28;;;;;;;9.50;6.38;;;13.10;99.90;;;;;;5051273;28;20044;-69
2023/10/26 13:08:14;;;;;;;13.07;7.18;;;13.10;99.90;;;;;;5060684;28;20063;-70
2023/10/26 13:11:00;;;;;;;10.68;7.10;;;13.10;99.90;;;;;;5044629;28;20819;-70
2023/10/26 13:13:46;;;;;;;10.40;6.88;;;13.10;99.90;;;;;;5068266;28;21039;-69
2023/10/26 13:16:32;;;;;;;9.45;7.82;;;13.10;99.90;;;;;;5065710;28;20448;-69
2023/10/26 13:19:18;;;;;;;10.07;7.32;;;13.00;99.90;;;;;;5064483;28;20036;-69
2023/10/26 13:22:04;;;;;;;8.90;6.82;;;13.10;99.90;;;;;;5052403;28;20115;-69
2023/10/26 13:24:50;;;;;;;8.65;7.10;;;13.10;99.90;;;;;;5056012;28;20052;-69
2023/10/26 13:27:35;;;;;;;10.20;7.30;;;13.10;99.90;;;;;;5049496;28;20115;-69
2023/10/26 13:30:21;;;;;;;9.98;6.53;;;13.10;99.90;;;;;;5051327;28;20070;-69
2023/10/26 13:33:07;;;;;;;10.00;7.10;;;13.20;99.90;;;;;;5059661;28;20040;-68
2023/10/26 13:35:54;;;;;;;10.05;6.93;;;13.10;99.90;;;;;;5062724;28;20694;-69
2023/10/26 13:38:41;;;;;;;9.80;6.63;;;13.20;99.90;;;;;;5068159;28;20182;-69
2023/10/26 13:41:27;;;;;;;9.55;6.65;;;13.20;99.90;;;;;;5068910;28;20044;-69
2023/10/26 13:44:13;;;;;;;9.80;7.15;;;13.20;99.90;;;;;;5050741;28;20076;-69
2023/10/26 13:46:58;;;;;;;9.68;7.18;;;13.20;99.90;;;;;;5063301;28;20028;-68
2023/10/26 13:49:44;;;;;;;9.00;6.40;;;13.30;99.90;;;;;;5069046;28;20044;-68
2023/10/26 13:52:30;;;;;;;9.13;7.03;;;13.30;99.90;;;;;;5068061;28;20036;-69
2023/10/26 13:55:16;;;;;;;9.82;7.13;;;13.30;99.90;;;;;;5048430;28;20056;-66
2023/10/26 13:58:02;;;;;;;9.10;6.63;;;13.30;99.90;;;;;;5067915;28;20048;-68
2023/10/26 14:00:49;;;;;;;10.30;7.95;;;13.30;99.90;;;;;;5049576;28;20071;-66
2023/10/26 14:03:35;;;;;;;9.13;6.78;;;13.30;99.90;;;;;;5048484;28;20083;-66
2023/10/26 14:06:27;;;;;;;8.93;6.78;;;13.30;99.90;;;;;;5049820;28;20040;-69
2023/10/26 14:09:13;;;;;;;9.82;7.15;;;13.30;99.90;;;;;;5053051;28;20040;-67
2023/10/26 14:12:01;;;;;;;10.40;7.43;;;13.30;99.90;;;;;;5068910;28;20052;-68
2023/10/26 14:14:47;;;;;;;11.25;8.20;;;13.30;99.90;;;;;;5068209;28;20044;-71
2023/10/26 14:17:34;;;;;;;10.70;7.72;;;13.30;99.90;;;;;;5068659;28;20033;-68
2023/10/26 14:20:20;;;;;;;9.57;7.65;;;13.30;99.90;;;;;;5059060;28;20040;-69